createdAt,value
2019-03-09T00:00:08.030Z,20.00
2019-03-09T00:02:36.615Z,20.00
2019-03-09T00:05:05.695Z,20.00
2019-03-09T00:07:34.233Z,19.20
2019-03-09T00:10:02.806Z,19.60
2019-03-09T00:12:31.366Z,19.80
2019-03-09T00:17:28.294Z,20.70
2019-03-09T00:19:57.551Z,21.00
2019-03-09T00:22:26.150Z,21.00
2019-03-09T00:24:56.306Z,20.90
2019-03-09T00:30:07.210Z,20.50
2019-03-09T00:35:04.140Z,20.80
2019-03-09T00:37:32.741Z,20.10
2019-03-09T00:40:01.728Z,19.60
2019-03-09T00:42:30.297Z,20.30
2019-03-09T00:44:58.915Z,20.10
2019-03-09T00:49:55.685Z,20.40
2019-03-09T00:52:24.298Z,20.30
2019-03-09T00:57:21.597Z,21.60
2019-03-09T00:59:56.662Z,20.60
2019-03-09T01:02:25.232Z,20.40
2019-03-09T01:04:53.727Z,20.30
2019-03-09T01:07:22.396Z,20.10
2019-03-09T01:09:50.958Z,20.20
2019-03-09T01:12:19.527Z,20.80
2019-03-09T01:17:16.522Z,19.40
2019-03-09T01:19:45.098Z,19.10
2019-03-09T01:24:41.966Z,19.20
2019-03-09T01:27:10.542Z,19.60
2019-03-09T01:29:39.166Z,20.10
2019-03-09T01:32:07.654Z,20.50
2019-03-09T01:34:36.289Z,19.90
2019-03-09T01:37:04.824Z,20.00
2019-03-09T01:39:33.399Z,20.50
2019-03-09T01:44:30.195Z,20.70
2019-03-09T01:46:58.697Z,20.30
2019-03-09T01:51:55.572Z,20.60
2019-03-09T01:54:24.067Z,20.50
2019-03-09T01:56:52.711Z,20.40
2019-03-09T01:59:21.669Z,20.40
2019-03-09T02:01:51.151Z,20.50
2019-03-09T02:06:48.005Z,19.80
2019-03-09T02:09:16.502Z,19.00
2019-03-09T02:11:45.004Z,18.80
2019-03-09T02:14:13.540Z,17.50
2019-03-09T02:16:42.117Z,18.50
2019-03-09T02:21:39.032Z,18.70
2019-03-09T02:24:07.613Z,19.20
2019-03-09T02:26:36.118Z,20.00
2019-03-09T02:29:04.722Z,20.30
2019-03-09T02:34:01.556Z,20.30
2019-03-09T02:39:02.799Z,20.10
2019-03-09T02:41:31.364Z,20.30
2019-03-09T02:43:59.978Z,19.50
2019-03-09T02:46:28.476Z,19.80
2019-03-09T02:48:56.980Z,19.80
2019-03-09T02:51:25.889Z,19.80
2019-03-09T02:53:54.448Z,19.60
2019-03-09T02:56:22.947Z,20.60
2019-03-09T02:58:51.491Z,20.00
2019-03-09T03:01:39.435Z,20.10
2019-03-09T03:04:07.995Z,19.70
2019-03-09T03:09:05.509Z,20.10
2019-03-09T03:11:34.054Z,20.00
2019-03-09T03:14:02.696Z,19.70
2019-03-09T03:16:31.535Z,19.50
2019-03-09T03:19:00.073Z,19.70
2019-03-09T03:21:28.639Z,19.50
2019-03-09T03:23:57.288Z,19.30
2019-03-09T03:26:25.892Z,18.90
2019-03-09T03:31:22.652Z,18.90
2019-03-09T03:33:51.338Z,19.20
2019-03-09T03:36:19.909Z,19.30
2019-03-09T03:38:48.461Z,19.30
2019-03-09T03:41:17.023Z,19.70
2019-03-09T03:43:45.679Z,19.60
2019-03-09T03:46:14.242Z,18.70
2019-03-09T03:48:42.775Z,19.30
2019-03-09T03:51:11.347Z,19.30
2019-03-09T03:53:39.922Z,19.40
2019-03-09T03:56:08.534Z,19.00
2019-03-09T03:58:37.110Z,19.20
2019-03-09T04:01:06.007Z,19.50
2019-03-09T04:03:34.619Z,19.00
2019-03-09T04:06:04.052Z,19.20
2019-03-09T04:08:32.552Z,19.40
2019-03-09T04:11:01.166Z,19.90
2019-03-09T04:15:57.925Z,20.10
2019-03-09T04:18:26.542Z,19.60
2019-03-09T04:20:55.055Z,20.30
2019-03-09T04:23:23.699Z,20.50
2019-03-09T04:25:52.393Z,19.50
2019-03-09T04:28:20.884Z,19.70
2019-03-09T04:30:49.534Z,20.10
2019-03-09T04:33:18.203Z,19.70
2019-03-09T04:35:46.698Z,20.40
2019-03-09T04:38:15.698Z,19.80
2019-03-09T04:40:44.414Z,19.70
2019-03-09T04:43:13.005Z,19.10
2019-03-09T04:45:41.574Z,19.40
2019-03-09T04:48:10.117Z,19.60
2019-03-09T04:50:38.691Z,19.90
2019-03-09T04:53:07.331Z,20.10
2019-03-09T04:55:35.931Z,20.30
2019-03-09T04:58:04.429Z,20.50
2019-03-09T05:00:32.996Z,20.60
2019-03-09T05:03:01.593Z,20.60
2019-03-09T05:05:30.159Z,20.70
2019-03-09T05:08:02.395Z,21.00
2019-03-09T05:10:34.133Z,21.00
2019-03-09T05:13:12.051Z,21.10
2019-03-09T05:15:40.663Z,20.40
2019-03-09T05:18:09.226Z,20.70
2019-03-09T05:20:38.803Z,20.90
2019-03-09T05:23:07.418Z,20.40
2019-03-09T05:25:35.922Z,20.10
2019-03-09T05:28:04.491Z,19.70
2019-03-09T05:30:46.063Z,19.90
2019-03-09T05:33:15.010Z,20.10
2019-03-09T05:35:43.593Z,20.30
2019-03-09T05:38:12.206Z,20.50
2019-03-09T05:40:40.753Z,20.70
2019-03-09T05:43:09.322Z,21.70
2019-03-09T05:45:37.867Z,20.50
2019-03-09T05:48:06.431Z,20.40
2019-03-09T05:50:34.999Z,20.60
2019-03-09T05:55:45.140Z,19.60
2019-03-09T05:58:13.650Z,19.20
2019-03-09T06:00:43.033Z,19.40
2019-03-09T06:03:11.532Z,19.70
2019-03-09T06:05:45.019Z,19.30
2019-03-09T06:10:42.023Z,19.10
2019-03-09T06:13:10.583Z,19.50
2019-03-09T06:15:39.262Z,19.50
2019-03-09T06:20:36.008Z,19.30
2019-03-09T06:23:04.613Z,19.20
2019-03-09T06:28:01.604Z,19.30
2019-03-09T06:30:30.194Z,19.30
2019-03-09T06:35:48.983Z,19.70
2019-03-09T06:38:26.166Z,19.70
2019-03-09T06:41:02.702Z,19.10
2019-03-09T06:43:24.941Z,19.20
2019-03-09T06:45:53.450Z,19.20
2019-03-09T06:50:50.311Z,19.20
2019-03-09T06:53:18.956Z,19.50
2019-03-09T07:00:44.561Z,20.10
2019-03-09T07:03:13.179Z,20.40
2019-03-09T07:05:41.744Z,20.80
2019-03-09T07:08:10.390Z,20.80
2019-03-09T07:10:38.922Z,20.90
2019-03-09T07:13:07.481Z,20.60
2019-03-09T07:15:38.239Z,20.70
2019-03-09T07:20:37.699Z,20.80
2019-03-09T07:23:06.251Z,20.80
2019-03-09T07:25:34.782Z,20.90
2019-03-09T07:28:05.251Z,20.40
2019-03-09T07:33:02.205Z,21.30
2019-03-09T07:40:27.446Z,20.90
2019-03-09T07:42:56.087Z,20.90
2019-03-09T07:45:24.659Z,21.10
2019-03-09T07:47:53.202Z,21.40
2019-03-09T07:50:23.398Z,21.70
2019-03-09T07:57:49.340Z,22.30
2019-03-09T08:00:21.604Z,21.10
2019-03-09T08:02:50.195Z,21.00
2019-03-09T08:05:18.711Z,21.70
2019-03-09T08:07:47.292Z,21.70
2019-03-09T08:10:22.691Z,21.20
2019-03-09T08:12:51.253Z,21.60
2019-03-09T08:17:48.737Z,21.70
2019-03-09T08:20:18.577Z,21.20
2019-03-09T08:22:47.223Z,21.60
2019-03-09T08:25:44.347Z,21.50
2019-03-09T08:28:13.038Z,22.10
2019-03-09T08:30:41.675Z,21.30
2019-03-09T08:33:11.288Z,21.50
2019-03-09T08:35:39.938Z,21.90
2019-03-09T08:38:08.448Z,22.00
2019-03-09T08:40:37.137Z,23.20
2019-03-09T08:43:05.765Z,23.60
2019-03-09T08:45:34.784Z,23.70
2019-03-09T08:48:03.384Z,23.80
2019-03-09T08:50:31.955Z,24.00
2019-03-09T08:53:00.555Z,24.40
2019-03-09T08:55:29.161Z,23.70
2019-03-09T08:57:57.821Z,24.80
2019-03-09T09:00:31.342Z,24.70
2019-03-09T09:03:00.133Z,23.70
2019-03-09T09:05:28.888Z,24.50
2019-03-09T09:07:57.543Z,24.40
2019-03-09T09:10:26.209Z,23.20
2019-03-09T09:12:54.902Z,22.60
2019-03-09T09:15:23.644Z,21.70
2019-03-09T09:17:52.683Z,21.10
2019-03-09T09:20:23.583Z,22.00
2019-03-09T09:22:53.725Z,20.90
2019-03-09T09:25:22.405Z,21.30
2019-03-09T09:27:52.017Z,21.50
2019-03-09T09:30:23.743Z,20.90
2019-03-09T09:32:52.408Z,20.50
2019-03-09T09:35:21.045Z,20.90
2019-03-09T09:52:44.471Z,19.60
2019-03-09T09:55:15.635Z,19.40
2019-03-09T09:57:44.198Z,18.90
2019-03-09T10:02:42.684Z,18.60
2019-03-09T10:05:11.710Z,18.30
2019-03-09T11:12:05.538Z,13.90
2019-03-09T11:14:34.139Z,14.50
2019-03-09T11:19:58.507Z,15.00
2019-03-09T11:22:27.424Z,15.20
2019-03-09T11:25:03.071Z,15.00
2019-03-09T11:27:26.183Z,14.90
2019-03-09T11:29:54.821Z,15.30
2019-03-09T11:32:23.469Z,15.50
2019-03-09T11:34:52.001Z,15.60
2019-03-09T11:37:20.641Z,16.10
2019-03-09T11:42:17.618Z,17.30
2019-03-09T11:44:46.181Z,18.40
2019-03-09T11:47:14.757Z,19.60
2019-03-09T11:49:43.354Z,18.70
2019-03-09T11:52:19.661Z,17.10
2019-03-09T11:59:38.862Z,18.00
2019-03-09T12:02:07.549Z,18.00
2019-03-09T12:04:46.291Z,18.40
2019-03-09T12:17:01.512Z,18.90
2019-03-09T12:19:30.140Z,18.80
2019-03-09T12:24:28.845Z,19.10
2019-03-09T12:26:57.357Z,18.00
2019-03-09T12:29:27.010Z,18.20
2019-03-09T12:31:55.552Z,18.30
2019-03-09T12:34:24.159Z,18.70
2019-03-09T12:36:52.667Z,18.20
2019-03-09T12:41:49.546Z,18.40
2019-03-09T12:44:18.123Z,18.40
2019-03-09T12:46:46.696Z,18.20
2019-03-09T12:49:15.334Z,18.20
2019-03-09T12:54:12.086Z,19.60
2019-03-09T12:56:40.690Z,20.30
2019-03-09T12:59:09.339Z,20.50
2019-03-09T13:01:38.093Z,19.40
2019-03-09T13:04:10.606Z,19.30
2019-03-09T13:06:39.229Z,19.20
2019-03-09T13:19:01.657Z,20.70
2019-03-09T13:21:31.195Z,21.00
2019-03-09T13:23:59.892Z,20.60
2019-03-09T13:26:28.501Z,21.40
2019-03-09T13:28:57.181Z,21.60
2019-03-09T13:31:25.786Z,21.30
2019-03-09T13:33:54.376Z,21.60
2019-03-09T13:38:51.285Z,21.80
2019-03-09T13:41:19.966Z,21.40
2019-03-09T13:43:48.623Z,21.50
2019-03-09T13:46:17.268Z,21.50
2019-03-09T13:48:45.945Z,21.90
2019-03-09T13:51:14.508Z,21.50
2019-03-09T13:53:43.156Z,21.10
2019-03-09T13:56:11.842Z,22.10
2019-03-09T14:03:37.049Z,21.00
2019-03-09T14:06:05.706Z,20.60
2019-03-09T14:08:34.298Z,21.00
2019-03-09T14:11:02.893Z,21.40
2019-03-09T14:13:31.545Z,22.60
2019-03-09T14:30:50.886Z,22.10
2019-03-09T14:33:20.694Z,21.50
2019-03-09T14:35:49.426Z,21.60
2019-03-09T14:38:17.935Z,21.50
2019-03-09T14:40:46.533Z,22.10
2019-03-09T14:45:43.388Z,20.70
2019-03-09T14:48:11.996Z,20.30
2019-03-09T14:50:40.575Z,19.30
